Time;durP1;ratioP1;P1;durP2;ratioP2;P2;SDS_P1;SDS_P2;PMS_P1;PMS_P2;Temp;Humidity;BMP_temperature;BMP_pressure;BME280_temperature;BME280_humidity;BME280_pressure;Samples;Min_cycle;Max_cycle;Signal;HPM_P1;HPM_P2
2022/05/11 00:01:36;;;;;;;11.48;8.02;;;17.80;99.90;;;;;;4789569;29;20228;-88
2022/05/11 00:04:03;;;;;;;10.00;7.00;;;17.80;99.90;;;;;;4789572;29;20179;-87
2022/05/11 00:06:29;;;;;;;10.85;7.47;;;17.80;99.90;;;;;;4803713;29;20187;-86
2022/05/11 00:08:57;;;;;;;13.45;7.63;;;17.80;99.90;;;;;;4789679;29;20202;-87
2022/05/11 00:11:23;;;;;;;11.80;6.78;;;17.70;99.90;;;;;;4789530;29;20237;-86
2022/05/11 00:13:49;;;;;;;13.93;7.10;;;17.80;99.90;;;;;;4789474;29;20691;-87
2022/05/11 00:16:16;;;;;;;11.98;8.20;;;17.70;99.90;;;;;;4789631;29;20295;-84
2022/05/11 00:18:42;;;;;;;10.38;7.15;;;17.80;99.90;;;;;;4788398;29;20241;-87
2022/05/11 00:21:10;;;;;;;11.20;7.75;;;17.70;99.90;;;;;;4789719;29;20180;-87
2022/05/11 00:26:12;;;;;;;11.40;7.88;;;17.70;99.90;;;;;;5116912;23;20265;-88
2022/05/11 00:28:38;;;;;;;10.63;7.60;;;17.70;99.90;;;;;;4789621;29;20485;-86
2022/05/11 00:31:04;;;;;;;12.30;8.35;;;17.70;99.90;;;;;;4789078;29;20237;-86
2022/05/11 00:33:30;;;;;;;13.75;7.80;;;17.60;99.90;;;;;;4789523;29;20510;-86
2022/05/11 00:35:56;;;;;;;10.93;8.55;;;17.70;99.90;;;;;;4789348;29;20215;-89
2022/05/11 00:38:24;;;;;;;11.02;8.77;;;17.60;99.90;;;;;;4789629;29;20176;-87
2022/05/11 00:40:54;;;;;;;13.55;8.82;;;17.60;99.90;;;;;;4787943;30;20191;-87
2022/05/11 00:43:38;;;;;;;13.30;8.93;;;17.60;99.90;;;;;;4789356;29;20611;-87
2022/05/11 00:46:26;;;;;;;13.27;8.50;;;17.60;99.90;;;;;;4788131;30;20187;-87
2022/05/11 00:51:47;;;;;;;11.05;8.38;;;17.60;99.90;;;;;;4791275;29;20252;-86
2022/05/11 00:54:15;;;;;;;13.60;9.60;;;17.60;99.90;;;;;;4824322;29;20183;-88
2022/05/11 00:56:46;;;;;;;12.00;8.50;;;17.60;99.90;;;;;;4823870;29;20232;-86
2022/05/11 00:59:17;;;;;;;14.05;9.27;;;17.60;99.90;;;;;;4824288;29;20250;-86
2022/05/11 01:01:42;;;;;;;9.18;8.20;;;17.60;99.90;;;;;;4824226;29;20206;-86
2022/05/11 01:04:16;;;;;;;11.95;8.75;;;17.50;99.90;;;;;;4810287;29;20202;-87
2022/05/11 01:06:43;;;;;;;10.77;7.97;;;17.50;99.90;;;;;;4810233;29;20170;-86
2022/05/11 01:09:10;;;;;;;12.98;8.70;;;17.50;99.90;;;;;;4824152;29;20641;-86
2022/05/11 01:11:42;;;;;;;12.95;9.10;;;17.50;99.90;;;;;;4809786;29;20606;-86
2022/05/11 01:14:11;;;;;;;12.85;9.07;;;17.40;99.90;;;;;;4810529;29;20237;-87
2022/05/11 01:16:38;;;;;;;13.10;8.65;;;17.40;99.90;;;;;;4810258;29;20619;-86
2022/05/11 01:19:05;;;;;;;13.05;8.65;;;17.40;99.90;;;;;;4809873;29;20195;-85
2022/05/11 01:21:54;;;;;;;12.95;9.05;;;17.40;99.90;;;;;;4809893;29;20186;-87
2022/05/11 01:24:27;;;;;;;9.85;8.70;;;17.40;99.90;;;;;;4809638;29;20194;-87
2022/05/11 01:26:56;;;;;;;10.68;8.95;;;17.40;99.90;;;;;;4809560;29;20234;-86
2022/05/11 01:29:22;;;;;;;13.13;9.02;;;17.40;99.90;;;;;;4809592;29;20201;-87
2022/05/11 01:31:48;;;;;;;13.10;10.18;;;17.40;99.90;;;;;;4809871;29;20178;-87
2022/05/11 01:34:19;;;;;;;16.27;9.50;;;17.40;99.90;;;;;;4809755;29;20175;-87
2022/05/11 01:36:49;;;;;;;15.48;9.48;;;17.30;99.90;;;;;;4809860;29;20623;-86
2022/05/11 01:39:14;;;;;;;11.57;9.30;;;17.40;99.90;;;;;;4809808;29;20174;-86
2022/05/11 01:41:50;;;;;;;12.02;9.75;;;17.40;99.90;;;;;;4809294;29;20186;-86
2022/05/11 01:44:19;;;;;;;13.73;10.23;;;17.40;99.90;;;;;;4809626;29;20171;-86
2022/05/11 01:46:48;;;;;;;13.32;9.75;;;17.40;99.90;;;;;;4809334;29;20236;-85
2022/05/11 01:49:14;;;;;;;11.70;9.70;;;17.30;99.90;;;;;;4809465;29;20170;-85
2022/05/11 01:51:40;;;;;;;12.65;10.55;;;17.30;99.90;;;;;;4809244;29;20223;-85
2022/05/11 01:54:06;;;;;;;13.82;10.18;;;17.30;99.90;;;;;;4809113;29;20187;-85
2022/05/11 01:56:32;;;;;;;14.13;10.50;;;17.20;99.90;;;;;;4807582;29;20193;-84
2022/05/11 01:58:57;;;;;;;13.38;10.43;;;17.20;99.90;;;;;;4809531;29;20171;-83
2022/05/11 02:01:29;;;;;;;17.33;10.60;;;17.20;99.90;;;;;;4807778;29;20190;-81
2022/05/11 02:03:55;;;;;;;16.40;10.68;;;17.10;99.90;;;;;;4807867;29;20186;-81
2022/05/11 02:09:06;;;;;;;13.07;11.07;;;17.00;99.90;;;;;;4808811;29;20525;-80
2022/05/11 02:11:33;;;;;;;11.70;10.50;;;17.00;99.90;;;;;;4808936;29;20186;-79
2022/05/11 02:13:59;;;;;;;12.38;10.38;;;17.00;99.90;;;;;;4808665;29;20623;-79
2022/05/11 02:16:25;;;;;;;13.38;11.15;;;17.00;99.90;;;;;;4807523;29;20233;-79
2022/05/11 02:18:52;;;;;;;16.38;11.65;;;16.90;99.90;;;;;;4808721;29;20170;-79
2022/05/11 02:21:18;;;;;;;14.73;10.73;;;16.90;99.90;;;;;;4822457;29;20252;-78
2022/05/11 02:23:43;;;;;;;14.35;10.55;;;16.90;99.90;;;;;;4808242;29;20187;-80
2022/05/11 02:26:11;;;;;;;12.88;11.23;;;17.00;99.90;;;;;;4808014;29;20631;-79
2022/05/11 02:28:38;;;;;;;13.18;10.65;;;16.90;99.90;;;;;;4794976;29;20191;-79
2022/05/11 02:31:04;;;;;;;13.85;10.70;;;16.90;99.90;;;;;;4790417;29;20186;-79
2022/05/11 02:33:31;;;;;;;12.35;10.77;;;16.90;99.90;;;;;;4790212;29;20197;-79
2022/05/11 02:35:57;;;;;;;13.88;11.15;;;16.90;99.90;;;;;;4790270;29;20324;-79
2022/05/11 02:38:33;;;;;;;15.75;10.88;;;16.90;99.90;;;;;;4803813;29;20210;-80
2022/05/11 02:40:59;;;;;;;13.85;10.10;;;16.80;99.90;;;;;;4803824;29;20237;-79
2022/05/11 02:43:26;;;;;;;14.00;10.23;;;16.80;99.90;;;;;;4790057;29;20203;-79
2022/05/11 02:45:53;;;;;;;13.82;10.88;;;16.80;99.90;;;;;;4790103;29;20191;-80
2022/05/11 02:48:22;;;;;;;12.90;10.85;;;16.80;99.90;;;;;;4790036;29;20612;-80
2022/05/11 02:50:54;;;;;;;13.00;10.80;;;16.70;99.90;;;;;;4790118;29;20191;-79
2022/05/11 02:53:21;;;;;;;15.30;11.60;;;16.70;99.90;;;;;;4804033;29;20194;-80
2022/05/11 02:55:49;;;;;;;12.88;10.15;;;16.70;99.90;;;;;;4807902;29;20688;-80
2022/05/11 02:58:17;;;;;;;14.07;10.52;;;16.70;99.90;;;;;;4807877;29;20187;-80
2022/05/11 03:00:44;;;;;;;14.85;10.65;;;16.60;99.90;;;;;;4808050;29;20178;-80
2022/05/11 03:03:12;;;;;;;11.02;9.80;;;16.70;99.90;;;;;;4807672;29;20257;-80
2022/05/11 03:05:40;;;;;;;11.20;10.05;;;16.60;99.90;;;;;;4807741;29;20183;-80
2022/05/11 03:08:06;;;;;;;11.98;10.77;;;16.70;99.90;;;;;;4807791;29;20294;-79
2022/05/11 03:10:32;;;;;;;13.00;10.30;;;16.70;99.90;;;;;;4807817;29;20175;-80
2022/05/11 03:12:58;;;;;;;14.25;10.77;;;16.70;99.90;;;;;;4807374;29;20193;-80
2022/05/11 03:15:24;;;;;;;13.05;11.70;;;16.70;99.90;;;;;;4807326;29;20206;-80
2022/05/11 03:17:50;;;;;;;14.80;10.73;;;16.70;99.90;;;;;;4807498;29;20178;-79
2022/05/11 03:20:18;;;;;;;13.52;11.52;;;16.60;99.90;;;;;;4807504;29;20642;-80
2022/05/11 03:22:44;;;;;;;13.80;10.63;;;16.60;99.90;;;;;;4807400;29;20202;-80
2022/05/11 03:25:10;;;;;;;13.07;10.98;;;16.60;99.90;;;;;;4807535;29;20235;-80
2022/05/11 03:27:36;;;;;;;12.27;10.73;;;16.60;99.90;;;;;;4807092;29;20507;-81
2022/05/11 03:30:04;;;;;;;20.23;10.80;;;16.60;99.90;;;;;;4821669;29;20590;-80
2022/05/11 03:35:14;;;;;;;12.45;11.25;;;16.70;99.90;;;;;;4807420;29;20221;-80
2022/05/11 03:37:39;;;;;;;12.18;10.82;;;16.70;99.90;;;;;;4807644;29;20191;-80
2022/05/11 03:40:08;;;;;;;16.35;11.38;;;16.70;99.90;;;;;;4806104;29;20174;-80
2022/05/11 03:42:35;;;;;;;14.48;11.70;;;16.70;99.90;;;;;;4805859;29;20308;-80
2022/05/11 03:45:13;;;;;;;13.15;11.30;;;16.70;99.90;;;;;;4807199;29;20194;-80
2022/05/11 03:47:39;;;;;;;12.88;11.13;;;16.70;99.90;;;;;;4807244;29;20623;-80
2022/05/11 03:50:06;;;;;;;14.25;11.18;;;16.70;99.90;;;;;;4807314;29;20182;-80
2022/05/11 03:52:32;;;;;;;13.32;11.00;;;16.60;99.90;;;;;;4807282;29;20190;-80
2022/05/11 03:54:58;;;;;;;15.93;12.57;;;16.60;99.90;;;;;;4807164;29;20664;-80
2022/05/11 03:57:23;;;;;;;16.55;12.98;;;16.60;99.90;;;;;;4806758;29;20265;-79
2022/05/11 03:59:49;;;;;;;15.20;12.38;;;16.50;99.90;;;;;;4805898;29;20524;-79
2022/05/11 04:02:15;;;;;;;15.43;12.82;;;16.50;99.90;;;;;;4807049;29;20201;-80
2022/05/11 04:04:40;;;;;;;15.70;11.43;;;16.40;99.90;;;;;;4807287;29;20614;-80
2022/05/11 04:07:06;;;;;;;13.90;12.10;;;16.40;99.90;;;;;;4807213;29;20312;-80
2022/05/11 04:09:32;;;;;;;13.77;12.27;;;16.40;99.90;;;;;;4807010;29;20179;-80
2022/05/11 04:11:57;;;;;;;14.68;11.60;;;16.40;99.90;;;;;;4806774;29;20505;-79
2022/05/11 04:14:23;;;;;;;14.50;11.77;;;16.40;99.90;;;;;;4806969;29;20187;-80
2022/05/11 04:16:58;;;;;;;15.82;12.13;;;16.40;99.90;;;;;;4807090;29;20279;-80
2022/05/11 04:19:25;;;;;;;12.75;11.35;;;16.40;99.90;;;;;;4807247;29;20197;-80
2022/05/11 04:21:51;;;;;;;14.80;11.57;;;16.40;99.90;;;;;;4807229;29;20206;-80
2022/05/11 04:24:16;;;;;;;16.45;12.75;;;16.40;99.90;;;;;;4806925;29;20179;-80
2022/05/11 04:26:42;;;;;;;15.52;11.73;;;16.30;99.90;;;;;;4806526;29;20278;-80
2022/05/11 04:29:08;;;;;;;15.30;11.45;;;16.30;99.90;;;;;;4810281;29;20193;-79
2022/05/11 04:31:33;;;;;;;18.48;11.35;;;16.30;99.90;;;;;;4810637;29;20262;-79
2022/05/11 04:33:59;;;;;;;15.20;11.48;;;16.30;99.90;;;;;;4810400;29;20194;-79
2022/05/11 04:36:25;;;;;;;16.85;11.38;;;16.30;99.90;;;;;;4810277;29;20225;-80
2022/05/11 04:38:50;;;;;;;15.13;11.25;;;16.30;99.90;;;;;;4810419;29;20195;-79
2022/05/11 04:41:16;;;;;;;16.88;11.52;;;16.30;99.90;;;;;;4823733;29;20186;-80
2022/05/11 04:43:42;;;;;;;13.80;11.65;;;16.30;99.90;;;;;;4808935;29;20195;-79
2022/05/11 04:46:08;;;;;;;12.80;11.45;;;16.30;99.90;;;;;;4810095;29;20187;-79
2022/05/11 04:48:33;;;;;;;14.10;11.50;;;16.30;99.90;;;;;;4810067;29;20185;-79
2022/05/11 04:51:01;;;;;;;16.05;11.68;;;16.30;99.90;;;;;;4824129;29;20190;-80
2022/05/11 04:53:27;;;;;;;17.30;11.45;;;16.30;99.90;;;;;;4809989;29;20653;-80
2022/05/11 04:55:53;;;;;;;14.30;11.68;;;16.40;99.90;;;;;;4809885;29;20226;-80
2022/05/11 04:58:19;;;;;;;16.42;11.57;;;16.40;99.90;;;;;;4809616;29;20509;-80
2022/05/11 05:00:44;;;;;;;14.25;12.38;;;16.50;99.90;;;;;;4810021;29;20315;-80
2022/05/11 05:03:12;;;;;;;15.05;12.13;;;16.50;99.90;;;;;;4809915;29;20183;-80
2022/05/11 05:05:38;;;;;;;14.73;11.27;;;16.50;99.90;;;;;;4809817;29;20284;-80
2022/05/11 05:08:08;;;;;;;14.80;11.45;;;16.60;99.90;;;;;;4809760;29;20258;-79
2022/05/11 05:10:34;;;;;;;15.27;11.32;;;16.60;99.90;;;;;;4823628;29;20572;-80
2022/05/11 05:13:04;;;;;;;13.73;11.60;;;16.60;99.90;;;;;;4809348;29;20245;-79
2022/05/11 05:15:31;;;;;;;14.10;11.73;;;16.70;99.90;;;;;;4809982;29;20218;-80
2022/05/11 05:17:56;;;;;;;13.93;12.48;;;16.70;99.90;;;;;;4808685;29;20183;-79
2022/05/11 05:20:22;;;;;;;14.82;11.93;;;16.70;99.90;;;;;;4809741;29;20506;-80
2022/05/11 05:22:48;;;;;;;17.02;12.07;;;16.70;99.90;;;;;;4809636;29;20240;-79
2022/05/11 05:25:14;;;;;;;15.48;11.35;;;16.70;99.90;;;;;;4809299;29;20238;-79
2022/05/11 05:27:40;;;;;;;16.80;11.90;;;16.70;99.90;;;;;;4809127;29;20195;-80
2022/05/11 05:32:51;;;;;;;15.98;10.85;;;16.70;99.90;;;;;;4791489;30;20703;-79
2022/05/11 05:35:19;;;;;;;15.38;11.32;;;16.70;99.90;;;;;;4790958;29;20258;-80
2022/05/11 05:37:45;;;;;;;14.50;11.82;;;16.70;99.90;;;;;;4791334;29;20188;-79
2022/05/11 05:40:11;;;;;;;16.60;12.48;;;16.70;99.90;;;;;;4791324;29;20199;-80
2022/05/11 05:42:37;;;;;;;15.68;12.85;;;16.80;99.90;;;;;;4790920;29;20573;-79
2022/05/11 05:45:04;;;;;;;14.52;12.73;;;16.80;99.90;;;;;;4790322;29;20282;-80
2022/05/11 05:47:30;;;;;;;17.17;12.38;;;16.80;99.90;;;;;;4791007;29;20526;-79
2022/05/11 05:49:56;;;;;;;16.75;12.65;;;16.70;99.90;;;;;;4790908;29;20187;-79
2022/05/11 05:52:25;;;;;;;16.35;12.55;;;16.80;99.90;;;;;;4797749;29;20187;-79
2022/05/11 05:54:53;;;;;;;16.50;12.95;;;16.70;99.90;;;;;;4803680;29;20207;-79
2022/05/11 05:57:19;;;;;;;18.10;12.88;;;16.70;99.90;;;;;;4790507;29;20547;-79
2022/05/11 05:59:45;;;;;;;16.00;12.48;;;16.70;99.90;;;;;;4790778;29;20183;-78
2022/05/11 06:02:16;;;;;;;24.58;12.20;;;16.80;99.90;;;;;;4790680;29;20356;-79
2022/05/11 06:04:47;;;;;;;13.75;12.15;;;16.80;99.90;;;;;;4790881;29;20159;-79
2022/05/11 06:07:16;;;;;;;15.02;11.80;;;16.80;99.90;;;;;;4790112;29;20199;-80
2022/05/11 06:09:41;;;;;;;15.20;12.95;;;16.80;99.90;;;;;;4789901;29;20180;-79
2022/05/11 06:12:10;;;;;;;14.77;12.45;;;17.00;99.90;;;;;;4789951;29;20191;-79
2022/05/11 06:14:36;;;;;;;16.27;12.45;;;17.00;99.90;;;;;;4790708;29;20286;-79
2022/05/11 06:17:03;;;;;;;18.60;12.77;;;17.00;99.90;;;;;;4790396;29;20268;-79
2022/05/11 06:19:29;;;;;;;17.25;13.20;;;17.00;99.90;;;;;;4790400;29;20182;-79
2022/05/11 06:21:55;;;;;;;14.63;11.68;;;17.10;99.90;;;;;;4807884;29;20210;-79
2022/05/11 06:24:21;;;;;;;16.98;13.43;;;17.20;99.90;;;;;;4808235;29;20619;-79
2022/05/11 06:26:47;;;;;;;16.45;12.48;;;17.20;99.90;;;;;;4807701;29;20725;-78
2022/05/11 06:29:12;;;;;;;13.82;12.35;;;17.30;99.90;;;;;;4808276;29;20190;-79
2022/05/11 06:31:38;;;;;;;15.02;12.23;;;17.40;99.90;;;;;;4792108;29;20534;-79
2022/05/11 06:34:05;;;;;;;16.52;12.40;;;17.40;99.90;;;;;;4790319;29;20200;-79
2022/05/11 06:36:31;;;;;;;15.43;12.73;;;17.60;99.90;;;;;;4790135;29;20211;-79
2022/05/11 06:38:56;;;;;;;14.43;12.65;;;17.70;99.90;;;;;;4788914;30;20187;-79
2022/05/11 06:41:27;;;;;;;17.23;12.35;;;17.80;99.90;;;;;;4790113;29;20568;-79
2022/05/11 06:43:52;;;;;;;14.00;11.60;;;17.90;99.90;;;;;;4789733;29;20193;-78
2022/05/11 06:46:19;;;;;;;12.70;11.23;;;18.00;99.90;;;;;;4789995;29;20581;-79
2022/05/11 06:48:48;;;;;;;14.73;11.75;;;18.10;99.90;;;;;;4790201;29;20286;-79
2022/05/11 06:51:15;;;;;;;13.55;12.00;;;18.20;99.90;;;;;;4789445;29;20507;-79
2022/05/11 06:59:22;;;;;;;13.70;11.30;;;18.40;99.90;;;;;;4807598;29;20227;-78
2022/05/11 07:01:57;;;;;;;15.85;11.27;;;18.40;99.90;;;;;;4807219;29;20202;-79
2022/05/11 07:04:24;;;;;;;14.48;11.07;;;18.40;99.90;;;;;;4789892;29;20516;-79
2022/05/11 07:06:54;;;;;;;12.73;10.32;;;18.40;99.90;;;;;;4789543;29;20191;-79
2022/05/11 07:09:24;;;;;;;16.33;10.93;;;18.50;99.90;;;;;;4802851;29;20207;-79
2022/05/11 07:14:35;;;;;;;15.02;9.90;;;18.50;99.90;;;;;;4789561;30;20214;-79
2022/05/11 07:17:01;;;;;;;17.80;9.90;;;18.60;99.90;;;;;;4789534;29;20524;-78
2022/05/11 07:19:27;;;;;;;13.65;10.23;;;18.60;99.90;;;;;;4789043;29;20187;-79
2022/05/11 07:21:54;;;;;;;13.95;9.23;;;18.70;99.90;;;;;;4792937;29;20197;-80
2022/05/11 07:24:20;;;;;;;11.02;9.60;;;18.80;99.90;;;;;;4807778;29;20214;-79
2022/05/11 07:26:46;;;;;;;12.68;9.75;;;18.80;99.90;;;;;;4807391;29;20238;-80
2022/05/11 07:29:12;;;;;;;16.58;9.52;;;19.00;99.90;;;;;;4807140;29;20187;-80
2022/05/11 07:31:38;;;;;;;11.40;9.52;;;19.00;99.90;;;;;;4806325;29;20178;-80
2022/05/11 07:34:05;;;;;;;12.27;10.10;;;19.20;99.90;;;;;;4807071;29;20178;-80
2022/05/11 07:36:31;;;;;;;13.23;10.32;;;19.30;99.90;;;;;;4807154;29;20253;-79
2022/05/11 07:38:57;;;;;;;13.65;10.38;;;19.40;99.90;;;;;;4807194;29;20181;-79
2022/05/11 07:41:22;;;;;;;14.57;10.13;;;19.60;99.90;;;;;;4807146;29;20178;-79
2022/05/11 07:43:48;;;;;;;12.40;8.88;;;19.90;99.90;;;;;;4807000;29;20186;-79
2022/05/11 07:46:14;;;;;;;12.43;9.30;;;20.20;99.90;;;;;;4807302;29;20178;-80
2022/05/11 07:48:40;;;;;;;12.55;9.90;;;20.40;99.90;;;;;;4805689;29;20194;-80
2022/05/11 07:51:06;;;;;;;11.35;8.95;;;20.50;99.90;;;;;;4807318;29;20238;-79
2022/05/11 07:53:32;;;;;;;10.40;9.15;;;20.60;99.90;;;;;;4807065;29;20242;-80
2022/05/11 08:01:27;;;;;;;11.43;9.10;;;21.10;99.90;;;;;;4807309;29;20206;-80
2022/05/11 08:03:53;;;;;;;14.40;9.13;;;21.10;99.90;;;;;;4810255;29;20522;-80
2022/05/11 08:06:21;;;;;;;14.88;8.48;;;21.10;99.90;;;;;;4810809;29;20186;-80
2022/05/11 08:08:47;;;;;;;9.70;8.18;;;21.00;99.90;;;;;;4810527;29;20194;-80
2022/05/11 08:11:13;;;;;;;9.65;7.63;;;21.00;99.90;;;;;;4810889;29;20319;-79
2022/05/11 08:13:38;;;;;;;10.77;7.53;;;21.10;99.90;;;;;;4810410;29;20185;-80
2022/05/11 08:16:04;;;;;;;11.15;8.10;;;21.00;99.90;;;;;;4810578;29;20226;-81
2022/05/11 08:18:30;;;;;;;10.77;8.07;;;20.90;99.90;;;;;;4810674;29;20190;-80
2022/05/11 08:20:55;;;;;;;9.27;8.30;;;20.90;99.90;;;;;;4810726;29;20266;-81
2022/05/11 08:23:22;;;;;;;9.90;8.00;;;21.00;99.90;;;;;;4810434;29;20186;-80
2022/05/11 08:25:49;;;;;;;15.35;7.78;;;21.10;99.90;;;;;;4810625;29;20234;-80
2022/05/11 08:28:22;;;;;;;9.35;7.60;;;21.00;99.90;;;;;;4810030;29;20277;-80
2022/05/11 08:33:38;;;;;;;10.90;8.02;;;21.20;99.90;;;;;;4792693;30;20182;-80
2022/05/11 08:36:06;;;;;;;10.02;7.90;;;21.50;99.90;;;;;;4792268;29;20682;-81
2022/05/11 08:38:34;;;;;;;11.48;6.80;;;21.50;99.90;;;;;;4792018;29;20632;-80
2022/05/11 08:41:06;;;;;;;9.70;7.13;;;21.50;99.90;;;;;;4792320;29;20187;-81
2022/05/11 08:43:34;;;;;;;10.88;7.30;;;21.60;99.90;;;;;;4791722;29;20191;-81
2022/05/11 08:46:25;;;;;;;9.55;6.20;;;21.70;99.90;;;;;;4792295;29;20219;-80
2022/05/11 08:49:03;;;;;;;14.65;7.72;;;21.90;99.90;;;;;;4791659;29;20278;-81
2022/05/11 08:51:48;;;;;;;11.02;7.10;;;22.00;99.90;;;;;;4792234;29;20217;-79
2022/05/11 08:54:24;;;;;;;8.23;6.93;;;21.90;99.90;;;;;;4810067;29;20198;-82
2022/05/11 08:56:52;;;;;;;10.77;6.80;;;21.90;99.90;;;;;;4808753;29;20202;-81
2022/05/11 08:59:24;;;;;;;11.15;7.38;;;22.00;99.90;;;;;;4809483;29;20736;-81
2022/05/11 09:02:12;;;;;;;7.55;6.20;;;22.00;99.90;;;;;;4809717;29;20190;-80
2022/05/11 09:04:47;;;;;;;7.85;5.35;;;22.00;99.90;;;;;;4800844;29;20224;-79
2022/05/11 09:07:13;;;;;;;7.47;5.03;;;21.90;99.90;;;;;;4809567;29;20178;-81
2022/05/11 09:09:40;;;;;;;6.80;5.50;;;21.90;99.90;;;;;;4809608;29;20185;-81
2022/05/11 09:12:07;;;;;;;8.75;5.68;;;21.90;99.90;;;;;;4809585;29;20198;-80
2022/05/11 09:14:42;;;;;;;7.03;5.13;;;21.90;99.90;;;;;;4808898;29;20247;-80
2022/05/11 09:17:27;;;;;;;5.93;5.15;;;21.90;99.90;;;;;;4809750;29;20175;-80
2022/05/11 09:20:12;;;;;;;11.23;5.60;;;22.00;99.90;;;;;;4809802;29;20191;-79
2022/05/11 09:22:53;;;;;;;7.90;6.05;;;21.90;99.90;;;;;;4809399;29;20214;-80
2022/05/11 09:25:21;;;;;;;7.13;5.85;;;21.90;99.90;;;;;;4794714;29;20416;-81
2022/05/11 09:27:48;;;;;;;7.22;5.63;;;22.10;99.90;;;;;;4789956;29;20242;-81
2022/05/11 09:30:30;;;;;;;7.38;5.65;;;22.30;99.90;;;;;;4794818;29;20247;-81
2022/05/11 09:33:30;;;;;;;10.20;5.32;;;22.60;99.90;;;;;;4809056;29;20182;-81
2022/05/11 09:35:56;;;;;;;6.45;5.50;;;22.90;99.90;;;;;;4808117;29;20234;-81
2022/05/11 09:38:22;;;;;;;7.88;5.65;;;23.00;99.90;;;;;;4809424;29;20277;-80
2022/05/11 09:40:59;;;;;;;6.78;5.10;;;23.10;99.90;;;;;;4809050;29;20641;-80
2022/05/11 09:43:42;;;;;;;6.70;4.68;;;23.00;99.90;;;;;;4808168;29;20194;-80
2022/05/11 09:46:20;;;;;;;4.70;4.30;;;23.00;99.90;;;;;;4809246;29;20166;-81
2022/05/11 09:49:09;;;;;;;9.10;4.72;;;22.90;99.90;;;;;;4809161;29;20182;-81
2022/05/11 09:51:54;;;;;;;8.75;4.97;;;22.90;99.90;;;;;;4822675;29;20510;-80
2022/05/11 09:54:28;;;;;;;9.07;4.80;;;22.90;99.90;;;;;;4809039;29;20171;-79
2022/05/11 09:57:15;;;;;;;7.18;5.03;;;23.00;99.90;;;;;;4809027;29;20211;-81
2022/05/11 09:59:50;;;;;;;7.53;5.05;;;23.10;99.90;;;;;;4808505;29;20271;-82
2022/05/11 10:02:34;;;;;;;5.63;4.82;;;23.10;99.90;;;;;;4822529;29;20285;-81
2022/05/11 10:05:08;;;;;;;7.30;4.63;;;23.30;99.90;;;;;;4822549;29;20249;-82
2022/05/11 10:07:44;;;;;;;7.30;5.15;;;23.60;99.90;;;;;;4808717;29;20170;-82
2022/05/11 10:10:18;;;;;;;5.35;4.30;;;23.80;99.90;;;;;;4808563;29;20177;-82
2022/05/11 10:12:46;;;;;;;5.53;4.32;;;24.00;99.90;;;;;;4808133;29;20174;-81
2022/05/11 10:24:22;;;;;;;6.07;4.10;;;24.10;99.90;;;;;;4808729;29;20234;-81
2022/05/11 10:27:25;;;;;;;6.05;3.72;;;24.20;99.10;;;;;;4821799;29;20226;-82
2022/05/11 10:30:09;;;;;;;6.55;3.42;;;24.40;99.90;;;;;;4790235;29;20231;-82
2022/05/11 10:32:52;;;;;;;10.75;3.92;;;24.70;98.00;;;;;;4790295;29;20369;-82
2022/05/11 10:35:27;;;;;;;4.00;3.08;;;24.90;96.90;;;;;;4785470;29;20224;-82
2022/05/11 10:38:01;;;;;;;4.75;3.17;;;24.70;95.40;;;;;;4772104;30;20223;-83
2022/05/11 10:41:03;;;;;;;6.95;3.53;;;24.80;94.90;;;;;;4786020;29;20187;-82
2022/05/11 10:43:52;;;;;;;7.68;3.20;;;25.00;95.00;;;;;;4771821;30;20175;-81
2022/05/11 10:46:36;;;;;;;5.55;3.13;;;25.10;94.50;;;;;;4785498;29;20199;-81
2022/05/11 10:49:35;;;;;;;7.13;3.20;;;25.20;94.70;;;;;;4772091;30;20262;-81
2022/05/11 10:52:33;;;;;;;5.72;3.10;;;25.30;94.50;;;;;;4780661;29;20618;-81
2022/05/11 10:55:18;;;;;;;5.82;3.00;;;25.40;94.90;;;;;;4806707;29;20231;-81
2022/05/11 10:58:10;;;;;;;3.00;2.58;;;25.40;94.50;;;;;;4821494;29;20538;-80
2022/05/11 11:00:51;;;;;;;7.90;3.40;;;25.20;92.90;;;;;;4807548;29;20210;-80
2022/05/11 11:03:40;;;;;;;9.07;3.15;;;25.20;92.80;;;;;;4807385;29;20218;-80
2022/05/11 11:09:09;;;;;;;5.75;3.10;;;25.50;92.30;;;;;;4807409;29;20178;-80
2022/05/11 11:11:50;;;;;;;6.82;3.35;;;25.20;93.10;;;;;;4807280;29;20175;-81
2022/05/11 11:14:26;;;;;;;6.72;3.10;;;25.40;94.20;;;;;;4807030;29;20182;-82
2022/05/11 11:16:53;;;;;;;6.97;2.63;;;25.70;92.70;;;;;;4806098;29;20197;-81
2022/05/11 11:19:19;;;;;;;7.45;2.97;;;25.80;91.80;;;;;;4821082;29;20198;-81
2022/05/11 11:21:45;;;;;;;9.60;3.08;;;26.00;93.30;;;;;;4807318;29;20236;-80
2022/05/11 11:24:24;;;;;;;4.38;3.17;;;26.10;92.00;;;;;;4807306;29;20250;-82
2022/05/11 11:26:56;;;;;;;9.68;3.60;;;26.10;92.10;;;;;;4807119;29;20682;-82
2022/05/11 11:29:26;;;;;;;5.88;3.17;;;25.80;92.60;;;;;;4806854;29;20162;-82
2022/05/11 11:31:58;;;;;;;6.40;3.13;;;25.80;93.00;;;;;;4789430;29;20631;-82
2022/05/11 11:34:27;;;;;;;8.30;3.67;;;25.60;92.30;;;;;;4787939;30;20184;-82
2022/05/11 11:36:54;;;;;;;5.63;2.80;;;25.20;93.00;;;;;;4789035;29;20226;-82
2022/05/11 11:39:48;;;;;;;4.85;2.97;;;25.10;93.40;;;;;;4787704;30;20619;-82
2022/05/11 11:42:28;;;;;;;8.65;3.22;;;25.20;92.80;;;;;;4788407;30;20190;-81
2022/05/11 11:44:54;;;;;;;7.75;3.20;;;25.10;92.10;;;;;;4788671;29;20483;-81
2022/05/11 11:47:26;;;;;;;7.18;3.35;;;25.00;93.40;;;;;;4789053;29;20194;-82
2022/05/11 11:49:54;;;;;;;8.57;2.90;;;25.10;92.30;;;;;;4787630;30;20194;-82
2022/05/11 11:52:40;;;;;;;3.95;2.90;;;25.10;91.80;;;;;;4795613;29;20190;-82
2022/05/11 11:55:28;;;;;;;4.55;2.60;;;25.20;92.30;;;;;;4820881;29;20210;-82
2022/05/11 11:58:12;;;;;;;6.32;3.00;;;25.20;92.40;;;;;;4805068;29;20190;-81
2022/05/11 12:00:57;;;;;;;6.13;3.03;;;25.50;92.90;;;;;;4821091;29;20607;-82
2022/05/11 12:03:25;;;;;;;3.33;2.50;;;26.10;91.90;;;;;;4806487;29;20171;-79
2022/05/11 12:05:55;;;;;;;6.05;2.25;;;26.40;90.80;;;;;;4806860;29;20171;-82
2022/05/11 12:16:56;;;;;;;9.13;2.33;;;26.00;90.40;;;;;;4807296;29;20189;-82
2022/05/11 12:19:50;;;;;;;8.68;2.33;;;25.80;90.00;;;;;;4820747;29;20273;-81
2022/05/11 12:22:22;;;;;;;8.13;2.40;;;25.70;88.30;;;;;;4806375;29;20688;-82
2022/05/11 12:24:57;;;;;;;5.30;2.53;;;26.00;89.60;;;;;;4806973;29;20198;-83
2022/05/11 12:27:33;;;;;;;9.43;2.30;;;26.20;88.90;;;;;;4807083;29;20166;-82
2022/05/11 12:30:08;;;;;;;5.35;2.50;;;26.50;90.00;;;;;;4816628;29;20202;-82
2022/05/11 12:32:35;;;;;;;7.18;2.53;;;26.70;88.60;;;;;;4802492;29;20185;-82
2022/05/11 12:35:18;;;;;;;6.82;2.40;;;26.40;88.90;;;;;;4788757;29;20250;-83
2022/05/11 12:37:53;;;;;;;3.70;2.22;;;26.50;89.40;;;;;;4787665;30;20180;-82
2022/05/11 12:40:20;;;;;;;4.03;2.28;;;26.70;88.10;;;;;;4788730;29;20174;-82
2022/05/11 12:42:52;;;;;;;6.32;2.50;;;27.00;84.10;;;;;;4802358;29;20631;-81
2022/05/11 12:45:25;;;;;;;6.25;2.72;;;27.00;86.10;;;;;;4802576;29;20697;-81
2022/05/11 12:47:56;;;;;;;7.95;2.53;;;27.20;84.30;;;;;;4787498;29;20179;-81
2022/05/11 12:50:21;;;;;;;3.47;2.30;;;27.30;86.20;;;;;;4791704;29;20180;-82
2022/05/11 12:53:01;;;;;;;5.15;2.50;;;27.40;86.40;;;;;;4800601;29;20627;-80
2022/05/11 12:55:33;;;;;;;3.88;2.35;;;27.40;83.80;;;;;;4809939;29;20213;-81
2022/05/11 12:57:59;;;;;;;3.95;2.67;;;27.60;83.70;;;;;;4823698;29;20512;-82
2022/05/11 13:00:25;;;;;;;7.43;2.65;;;27.70;85.40;;;;;;4808706;29;20195;-82
2022/05/11 13:02:51;;;;;;;8.23;3.05;;;27.80;85.00;;;;;;4809608;29;20185;-82
2022/05/11 13:05:19;;;;;;;4.38;2.13;;;27.80;85.10;;;;;;4809530;29;20701;-82
2022/05/11 13:07:55;;;;;;;10.88;2.72;;;27.70;83.70;;;;;;4823147;29;20187;-81
2022/05/11 13:10:36;;;;;;;6.85;2.70;;;27.60;83.10;;;;;;4809710;29;20596;-82
2022/05/11 13:13:05;;;;;;;10.23;2.58;;;27.70;84.70;;;;;;4809421;29;20233;-83
2022/05/11 13:15:45;;;;;;;7.38;2.72;;;27.70;82.50;;;;;;4809607;29;20211;-82
2022/05/11 13:18:24;;;;;;;8.20;2.13;;;27.60;81.90;;;;;;4809406;29;20230;-81
2022/05/11 13:20:52;;;;;;;6.28;2.47;;;27.70;81.00;;;;;;4809622;29;20204;-81
2022/05/11 13:23:29;;;;;;;10.38;2.50;;;27.90;81.00;;;;;;4809407;29;20615;-82
2022/05/11 13:25:58;;;;;;;5.63;2.25;;;27.90;83.00;;;;;;4809287;29;20237;-82
2022/05/11 13:28:30;;;;;;;6.60;2.30;;;27.80;80.30;;;;;;4808972;29;20646;-82
2022/05/11 13:31:23;;;;;;;4.55;1.95;;;27.90;81.60;;;;;;4809376;29;20186;-82
2022/05/11 13:33:49;;;;;;;10.57;2.30;;;28.00;81.80;;;;;;4809351;29;20175;-83
2022/05/11 13:36:28;;;;;;;9.15;2.65;;;28.20;78.90;;;;;;4809419;29;20272;-82
2022/05/11 13:38:58;;;;;;;4.72;2.35;;;28.20;80.90;;;;;;4809081;29;20633;-83
2022/05/11 13:41:31;;;;;;;7.70;2.38;;;28.20;80.90;;;;;;4809085;29;20270;-83
2022/05/11 13:44:01;;;;;;;4.78;2.60;;;28.30;80.90;;;;;;4813399;29;20523;-81